Terminal Aerodrome Forecast
Issued by NWS

Home | Current Version | Previous Version | Text Only | Print | Product List | Glossary On
Versions: 1 2 3 4 5 6 7 8 9 10 11 12 13 14 15 16 17 18 19
000
FTUS41 KBTV 241738
TAFMSS
TAF
KMSS 241738Z 2418/2518 29004KT P6SM OVC040
     FM242200 29004KT P6SM SCT040
     FM250200 VRB03KT P6SM SKC
     FM251200 23005KT P6SM SCT100 BKN150=

USA.gov is the U.S. government's official web portal to all federal, state and local government web resources and services.